createdAt,value
2022-12-18T00:00:14.637Z,0.90
2022-12-18T00:02:45.452Z,0.90
2022-12-18T00:05:14.392Z,0.90
2022-12-18T00:07:44.508Z,0.90
2022-12-18T00:10:15.335Z,0.90
2022-12-18T00:12:43.991Z,0.90
2022-12-18T00:15:11.855Z,0.90
2022-12-18T00:17:40.438Z,1.00
2022-12-18T00:20:10.426Z,0.90
2022-12-18T00:22:40.743Z,1.00
2022-12-18T00:25:11.063Z,1.00
2022-12-18T00:27:41.719Z,0.90
2022-12-18T00:30:12.088Z,0.90
2022-12-18T00:32:41.628Z,0.90
2022-12-18T00:35:12.276Z,1.00
2022-12-18T00:37:41.379Z,1.00
2022-12-18T00:40:12.542Z,1.00
2022-12-18T00:42:58.324Z,0.90
2022-12-18T00:45:30.582Z,0.90
2022-12-18T00:48:01.315Z,0.90
2022-12-18T00:50:32.058Z,0.90
2022-12-18T00:53:03.981Z,0.90
2022-12-18T00:55:33.518Z,0.90
2022-12-18T00:58:03.467Z,0.90
2022-12-18T01:00:35.062Z,0.90
2022-12-18T01:03:04.851Z,0.90
2022-12-18T01:05:35.022Z,0.90
2022-12-18T01:08:05.280Z,0.90
2022-12-18T01:10:34.879Z,0.90
2022-12-18T01:13:02.809Z,0.90
2022-12-18T01:15:33.703Z,0.90
2022-12-18T01:18:04.165Z,0.80
2022-12-18T01:20:32.252Z,0.80
2022-12-18T01:23:01.009Z,0.80
2022-12-18T01:25:29.967Z,0.90
2022-12-18T01:28:01.068Z,0.80
2022-12-18T01:30:32.608Z,0.90
2022-12-18T01:33:01.152Z,0.90
2022-12-18T01:35:31.003Z,0.90
2022-12-18T01:38:01.008Z,0.90
2022-12-18T01:40:32.386Z,0.90
2022-12-18T01:43:03.340Z,0.90
2022-12-18T01:45:35.967Z,0.80
2022-12-18T01:48:09.634Z,0.80
2022-12-18T01:50:45.311Z,0.80
2022-12-18T01:53:18.723Z,0.80
2022-12-18T01:55:51.831Z,0.70
2022-12-18T01:58:24.564Z,0.70
2022-12-18T02:00:54.411Z,0.70
2022-12-18T02:03:24.952Z,0.70
2022-12-18T02:06:01.870Z,0.60
2022-12-18T02:08:50.217Z,0.60
2022-12-18T02:11:28.712Z,0.60
2022-12-18T02:14:19.745Z,0.60
2022-12-18T02:17:23.901Z,0.50
2022-12-18T02:20:16.353Z,0.50
2022-12-18T02:22:53.342Z,0.50
2022-12-18T02:25:43.015Z,0.40
2022-12-18T02:28:17.990Z,0.40
2022-12-18T02:30:51.771Z,0.40
2022-12-18T02:33:23.305Z,0.40
2022-12-18T02:35:56.804Z,0.40
2022-12-18T02:38:29.773Z,0.40
2022-12-18T02:41:03.976Z,0.40
2022-12-18T03:06:03.974Z,0.00
2022-12-18T03:08:46.395Z,0.00
2022-12-18T03:11:16.531Z,0.00
2022-12-18T03:13:52.624Z,0.00
2022-12-18T03:16:28.962Z,-0.10
2022-12-18T03:18:59.931Z,-0.10
2022-12-18T03:21:35.158Z,-0.10
2022-12-18T03:24:10.703Z,-0.10
2022-12-18T03:26:44.444Z,-0.10
2022-12-18T03:29:37.059Z,-0.10
2022-12-18T03:32:34.421Z,-0.10
2022-12-18T03:35:08.160Z,-0.10
2022-12-18T03:37:40.195Z,-0.10
2022-12-18T03:40:11.637Z,-0.10
2022-12-18T03:42:58.082Z,-0.10
2022-12-18T03:45:40.239Z,-0.10
2022-12-18T03:48:41.467Z,-0.10
2022-12-18T03:51:41.197Z,-0.10
2022-12-18T03:54:12.631Z,-0.10
2022-12-18T03:56:56.289Z,-0.10
2022-12-18T03:59:48.702Z,-0.10
2022-12-18T04:06:52.245Z,-0.10
2022-12-18T04:09:32.048Z,-0.10
2022-12-18T04:12:00.976Z,-0.20
2022-12-18T04:14:30.638Z,-0.10
2022-12-18T04:17:01.418Z,-0.20
2022-12-18T04:19:35.700Z,-0.20
2022-12-18T04:22:06.087Z,-0.20
2022-12-18T04:24:44.511Z,-0.20
2022-12-18T04:27:24.321Z,-0.20
2022-12-18T04:29:55.145Z,-0.20
2022-12-18T04:32:25.236Z,-0.30
2022-12-18T04:34:56.925Z,-0.30
2022-12-18T04:37:26.995Z,-0.30
2022-12-18T04:39:56.889Z,-0.30
2022-12-18T04:42:35.730Z,-0.30
2022-12-18T04:45:05.795Z,-0.30
2022-12-18T04:47:33.272Z,-0.30
2022-12-18T04:50:04.407Z,-0.30
2022-12-18T04:52:32.130Z,-0.30
2022-12-18T04:55:10.773Z,-0.30
2022-12-18T05:32:07.578Z,-0.80
2022-12-18T06:42:22.574Z,-1.00
2022-12-18T06:44:52.280Z,-1.00
2022-12-18T06:47:22.273Z,-1.00
2022-12-18T06:49:50.720Z,-1.00
2022-12-18T06:52:18.995Z,-1.00
2022-12-18T06:54:49.150Z,-1.00
2022-12-18T06:57:18.311Z,-1.00
2022-12-18T06:59:49.245Z,-0.90
2022-12-18T07:02:18.889Z,-1.00
2022-12-18T07:04:48.140Z,-0.90
2022-12-18T07:07:17.121Z,-0.90
2022-12-18T07:09:47.191Z,-0.90
2022-12-18T07:12:17.021Z,-0.90
2022-12-18T07:14:46.945Z,-0.90
2022-12-18T07:17:21.691Z,-0.90
2022-12-18T07:24:14.602Z,-0.90
2022-12-18T07:32:06.527Z,-1.00
2022-12-18T07:38:38.082Z,-1.00
2022-12-18T07:55:54.734Z,-1.00
2022-12-18T07:58:32.394Z,-1.00
2022-12-18T08:02:01.054Z,-1.00
2022-12-18T08:04:31.795Z,-1.00
2022-12-18T08:07:01.742Z,-1.00
2022-12-18T08:09:30.162Z,-0.90
2022-12-18T08:11:59.515Z,-0.90
2022-12-18T08:14:28.455Z,-0.80
2022-12-18T08:17:02.258Z,-0.80
2022-12-18T08:19:33.011Z,-0.70
2022-12-18T08:22:03.152Z,-0.60
2022-12-18T08:24:31.113Z,-0.60
2022-12-18T08:27:27.797Z,-0.50
2022-12-18T08:29:48.370Z,-0.50
2022-12-18T08:32:16.058Z,-0.40
2022-12-18T08:34:45.056Z,-0.40
2022-12-18T08:37:13.496Z,-0.30
2022-12-18T09:00:39.644Z,-0.10
2022-12-18T09:20:09.381Z,0.30
2022-12-18T09:35:46.751Z,0.50
2022-12-18T09:40:11.012Z,0.60
2022-12-18T09:42:40.916Z,0.60
2022-12-18T09:45:16.130Z,0.70
2022-12-18T09:47:46.259Z,0.80
2022-12-18T09:50:56.475Z,0.80
2022-12-18T10:00:30.987Z,1.00
2022-12-18T10:03:23.653Z,1.10
2022-12-18T10:06:19.807Z,1.10
2022-12-18T10:09:06.499Z,1.20
2022-12-18T10:15:29.158Z,1.30
2022-12-18T10:18:21.836Z,1.40
2022-12-18T10:20:57.768Z,1.40
2022-12-18T10:23:59.539Z,1.50
2022-12-18T10:26:27.284Z,1.50
2022-12-18T10:28:56.367Z,1.60
2022-12-18T10:31:26.332Z,1.70
2022-12-18T10:33:56.259Z,1.70
2022-12-18T10:36:25.798Z,1.70
2022-12-18T10:38:53.065Z,1.80
2022-12-18T10:41:21.789Z,1.80
2022-12-18T10:43:49.521Z,1.90
2022-12-18T10:46:20.800Z,1.90
2022-12-18T10:48:48.430Z,1.90
2022-12-18T10:51:31.705Z,2.00
2022-12-18T10:54:02.109Z,2.00
2022-12-18T10:56:34.003Z,2.10
2022-12-18T10:59:10.745Z,2.10
2022-12-18T11:01:58.532Z,2.10
2022-12-18T11:04:33.253Z,2.20
2022-12-18T11:07:09.748Z,2.20
2022-12-18T11:09:39.091Z,2.20
2022-12-18T11:12:21.088Z,2.30
2022-12-18T11:14:53.165Z,2.30
2022-12-18T11:17:36.088Z,2.30
2022-12-18T11:20:20.281Z,2.40
2022-12-18T11:23:03.918Z,2.40
2022-12-18T11:25:35.102Z,2.50
2022-12-18T11:28:27.685Z,2.50
2022-12-18T11:31:33.670Z,2.60
2022-12-18T11:34:28.635Z,2.60
2022-12-18T11:37:01.036Z,2.60
2022-12-18T11:39:45.251Z,2.60
2022-12-18T11:42:16.443Z,2.70
2022-12-18T11:44:51.354Z,2.70
2022-12-18T11:47:38.154Z,2.70
2022-12-18T11:50:19.280Z,2.80
2022-12-18T11:52:49.392Z,2.80
2022-12-18T11:55:46.430Z,2.90
2022-12-18T11:58:36.020Z,2.90
2022-12-18T12:01:08.745Z,2.90
2022-12-18T12:04:02.687Z,3.00
2022-12-18T12:06:45.339Z,3.00
2022-12-18T12:09:45.489Z,3.00
2022-12-18T12:12:18.274Z,3.10
2022-12-18T12:15:08.259Z,3.00
2022-12-18T12:17:52.312Z,3.10
2022-12-18T12:20:46.628Z,3.10
2022-12-18T12:23:32.804Z,3.10
2022-12-18T12:26:11.316Z,3.20
2022-12-18T12:28:49.862Z,3.20
2022-12-18T12:31:29.206Z,3.20
2022-12-18T12:34:18.371Z,3.20
2022-12-18T12:37:11.362Z,3.20
2022-12-18T12:39:41.753Z,3.20
2022-12-18T12:42:53.091Z,3.20
2022-12-18T12:45:28.769Z,3.30
2022-12-18T12:47:56.754Z,3.30
2022-12-18T12:50:25.528Z,3.30
2022-12-18T12:52:56.535Z,3.30
2022-12-18T12:55:25.988Z,3.30
2022-12-18T12:58:27.609Z,3.30
2022-12-18T13:01:24.390Z,3.30
2022-12-18T13:04:02.338Z,3.30
2022-12-18T13:06:29.285Z,3.40
2022-12-18T13:09:01.402Z,3.40
2022-12-18T13:11:57.797Z,3.40
2022-12-18T13:14:35.478Z,3.40
2022-12-18T13:17:25.882Z,3.40
2022-12-18T13:20:17.327Z,3.40
2022-12-18T13:22:51.277Z,3.40
2022-12-18T13:25:37.900Z,3.50
2022-12-18T13:28:07.011Z,3.50
2022-12-18T13:30:34.494Z,3.50
2022-12-18T13:33:24.949Z,3.50
2022-12-18T13:35:51.926Z,3.50
2022-12-18T13:38:24.921Z,3.60
2022-12-18T13:40:51.761Z,3.60
2022-12-18T13:43:21.816Z,3.70
2022-12-18T13:46:26.429Z,3.70
2022-12-18T13:49:14.714Z,3.80
2022-12-18T13:51:55.057Z,3.80
2022-12-18T13:54:41.387Z,3.80
2022-12-18T13:57:30.963Z,3.70
2022-12-18T13:59:58.779Z,3.80
2022-12-18T14:02:28.180Z,3.70
2022-12-18T14:04:56.425Z,3.70
2022-12-18T14:07:26.574Z,3.70
2022-12-18T14:10:12.205Z,3.70
2022-12-18T14:12:57.877Z,3.70
2022-12-18T14:15:27.999Z,3.70
2022-12-18T14:17:58.608Z,3.70
2022-12-18T14:20:27.437Z,3.70
2022-12-18T14:22:55.507Z,3.70
2022-12-18T14:25:25.851Z,3.70
2022-12-18T14:28:10.636Z,3.70
2022-12-18T14:30:46.209Z,3.70
2022-12-18T14:33:13.179Z,3.70
2022-12-18T14:35:59.535Z,3.70
2022-12-18T14:38:29.958Z,3.70
2022-12-18T14:41:02.066Z,3.70
2022-12-18T14:43:32.924Z,3.70
2022-12-18T14:46:03.177Z,3.70
2022-12-18T14:48:44.744Z,3.70
2022-12-18T14:51:28.049Z,3.70
2022-12-18T14:54:04.983Z,3.70
2022-12-18T14:56:36.765Z,3.70
2022-12-18T14:59:35.509Z,3.70
2022-12-18T15:02:19.870Z,3.70
2022-12-18T15:04:47.647Z,3.70
2022-12-18T15:07:25.774Z,3.70
2022-12-18T15:10:11.560Z,3.60
2022-12-18T15:12:42.082Z,3.60
2022-12-18T15:15:35.062Z,3.60
2022-12-18T15:18:03.645Z,3.60
2022-12-18T15:20:42.643Z,3.60
2022-12-18T15:23:23.907Z,3.50
2022-12-18T15:26:09.825Z,3.50
2022-12-18T15:28:39.134Z,3.50
2022-12-18T15:31:18.029Z,3.40
2022-12-18T15:33:56.248Z,3.40
2022-12-18T15:36:39.297Z,3.50
2022-12-18T15:39:16.693Z,3.50
2022-12-18T15:42:04.983Z,3.50
2022-12-18T15:44:34.198Z,3.50
2022-12-18T15:47:02.665Z,3.50
2022-12-18T15:49:37.339Z,3.50
2022-12-18T15:52:08.109Z,3.50
2022-12-18T15:54:53.989Z,3.50
2022-12-18T15:57:25.620Z,3.50
2022-12-18T16:00:00.470Z,3.50
2022-12-18T16:02:29.140Z,3.50
2022-12-18T16:04:58.737Z,3.50
2022-12-18T16:07:28.149Z,3.50
2022-12-18T16:10:02.494Z,3.50
2022-12-18T16:12:32.480Z,3.40
2022-12-18T16:15:01.806Z,3.40
2022-12-18T16:17:29.461Z,3.40
2022-12-18T16:19:59.124Z,3.40
2022-12-18T16:22:31.310Z,3.40
2022-12-18T16:25:01.739Z,3.40
2022-12-18T16:27:29.603Z,3.40
2022-12-18T16:29:57.707Z,3.40
2022-12-18T16:32:25.160Z,3.40
2022-12-18T16:34:52.120Z,3.30
2022-12-18T16:37:19.806Z,3.30
2022-12-18T16:39:46.959Z,3.30
2022-12-18T16:42:26.981Z,3.30
2022-12-18T16:44:56.402Z,3.40
2022-12-18T16:47:24.507Z,3.30
2022-12-18T16:49:54.117Z,3.30
2022-12-18T16:52:22.368Z,3.30
2022-12-18T16:54:52.349Z,3.30
2022-12-18T16:57:23.170Z,3.30
2022-12-18T16:59:56.034Z,3.30
2022-12-18T17:02:28.344Z,3.30
2022-12-18T17:04:58.277Z,3.30
2022-12-18T17:07:28.661Z,3.30
2022-12-18T17:10:07.083Z,3.30
2022-12-18T17:12:38.152Z,3.30
2022-12-18T17:15:06.860Z,3.30
2022-12-18T17:17:34.587Z,3.30
2022-12-18T17:20:02.357Z,3.30
2022-12-18T17:22:29.683Z,3.30
2022-12-18T17:25:20.733Z,3.30
2022-12-18T17:28:12.158Z,3.30
2022-12-18T17:30:41.076Z,3.30
2022-12-18T17:33:09.483Z,3.40
2022-12-18T17:35:37.659Z,3.30
2022-12-18T17:38:05.919Z,3.30
2022-12-18T17:40:34.128Z,3.30
2022-12-18T17:43:05.104Z,3.40
2022-12-18T17:45:45.102Z,3.40
2022-12-18T17:48:18.736Z,3.40
2022-12-18T17:50:51.616Z,3.40
2022-12-18T17:53:22.388Z,3.40
2022-12-18T17:55:58.093Z,3.40
2022-12-18T17:58:26.819Z,3.40
2022-12-18T18:00:54.638Z,3.40
2022-12-18T18:03:22.570Z,3.40
2022-12-18T18:06:02.403Z,3.40
2022-12-18T18:08:32.680Z,3.40
2022-12-18T18:11:25.883Z,3.40
2022-12-18T18:14:23.445Z,3.50
2022-12-18T18:17:02.545Z,3.50
2022-12-18T18:19:39.391Z,3.40
2022-12-18T18:22:25.477Z,3.40
2022-12-18T18:25:13.993Z,3.40
2022-12-18T18:27:46.113Z,3.40
2022-12-18T18:30:22.818Z,3.40
2022-12-18T18:32:54.435Z,3.40
2022-12-18T18:38:48.494Z,3.50
2022-12-18T18:41:23.181Z,3.50
2022-12-18T18:44:00.511Z,3.50
2022-12-18T18:46:29.079Z,3.50
2022-12-18T18:48:59.885Z,3.50
2022-12-18T18:51:35.129Z,3.50
2022-12-18T18:54:05.049Z,3.50
2022-12-18T18:57:11.715Z,3.50
2022-12-18T18:59:31.540Z,3.60
2022-12-18T19:02:04.798Z,3.60
2022-12-18T19:04:34.736Z,3.60
2022-12-18T19:07:02.965Z,3.60
2022-12-18T19:09:32.171Z,3.60
2022-12-18T19:12:25.244Z,3.60
2022-12-18T19:14:55.425Z,3.60
2022-12-18T19:17:36.144Z,3.60
2022-12-18T19:20:28.832Z,3.60
2022-12-18T19:23:06.957Z,3.60
2022-12-18T19:29:03.472Z,3.60
2022-12-18T19:34:28.070Z,3.70
2022-12-18T19:36:59.767Z,3.70
2022-12-18T19:39:27.956Z,3.70
2022-12-18T19:41:56.570Z,3.70
2022-12-18T19:44:24.523Z,3.70
2022-12-18T19:46:51.872Z,3.70
2022-12-18T19:49:21.531Z,3.80
2022-12-18T19:51:50.487Z,3.80
2022-12-18T19:54:18.298Z,3.80
2022-12-18T19:56:46.095Z,3.80
2022-12-18T19:59:14.185Z,3.80
2022-12-18T20:01:41.477Z,3.90
2022-12-18T20:04:09.044Z,3.90
2022-12-18T20:06:47.943Z,3.90
2022-12-18T20:09:15.887Z,3.90
2022-12-18T20:11:43.494Z,4.00
2022-12-18T20:14:12.562Z,3.90
2022-12-18T20:16:39.690Z,3.90
2022-12-18T20:19:07.848Z,3.90
2022-12-18T20:21:34.803Z,3.90
2022-12-18T20:24:02.201Z,3.90
2022-12-18T20:26:29.917Z,3.90
2022-12-18T20:28:56.828Z,3.90
2022-12-18T20:31:24.509Z,3.90
2022-12-18T20:33:53.400Z,3.90
2022-12-18T20:36:22.640Z,3.90
2022-12-18T20:38:55.721Z,3.90
2022-12-18T20:41:27.710Z,3.90
2022-12-18T20:44:04.737Z,3.90
2022-12-18T20:46:31.718Z,3.90
2022-12-18T20:48:58.819Z,3.90
2022-12-18T20:51:28.204Z,3.90
2022-12-18T20:53:55.536Z,3.90
2022-12-18T20:56:23.576Z,3.90
2022-12-18T20:58:53.660Z,3.90
2022-12-18T21:01:23.414Z,3.90
2022-12-18T21:03:51.621Z,3.90
2022-12-18T21:06:20.622Z,3.90
2022-12-18T21:08:48.583Z,3.90
2022-12-18T21:11:38.851Z,3.90
2022-12-18T21:14:17.933Z,3.80
2022-12-18T21:16:44.999Z,3.80
2022-12-18T21:19:13.541Z,3.80
2022-12-18T21:21:41.786Z,3.80
2022-12-18T21:24:09.906Z,3.80
2022-12-18T21:26:44.897Z,3.80
2022-12-18T21:29:15.633Z,3.80
2022-12-18T21:31:43.270Z,3.80
2022-12-18T21:34:17.650Z,3.90
2022-12-18T21:36:44.948Z,3.90
2022-12-18T21:39:13.718Z,3.90
2022-12-18T21:41:59.124Z,3.90
2022-12-18T21:44:26.173Z,3.80
2022-12-18T21:46:58.194Z,3.80
2022-12-18T21:49:28.609Z,3.80
2022-12-18T21:51:57.742Z,3.80
2022-12-18T21:54:26.831Z,3.80
2022-12-18T21:57:02.380Z,3.80
2022-12-18T21:59:37.837Z,3.80
2022-12-18T22:02:14.766Z,3.80
2022-12-18T22:04:42.774Z,3.80
2022-12-18T22:07:10.742Z,3.80
2022-12-18T22:09:38.556Z,3.80
2022-12-18T22:12:06.115Z,3.90
2022-12-18T22:14:33.095Z,3.90
2022-12-18T22:17:00.088Z,3.90
2022-12-18T22:19:27.995Z,3.90
2022-12-18T22:21:54.909Z,3.90
2022-12-18T22:24:24.098Z,3.90
2022-12-18T22:26:55.829Z,4.00
2022-12-18T22:29:47.560Z,4.00
2022-12-18T22:32:30.769Z,4.00
2022-12-18T22:35:07.936Z,4.00
2022-12-18T22:37:37.020Z,4.00
2022-12-18T22:40:05.970Z,3.90
2022-12-18T22:42:34.266Z,4.00
2022-12-18T22:45:01.147Z,4.00
2022-12-18T22:47:30.335Z,4.00
2022-12-18T22:49:58.109Z,4.00
2022-12-18T22:52:25.486Z,4.00
2022-12-18T22:54:53.952Z,4.00
2022-12-18T22:57:22.240Z,4.00
2022-12-18T22:59:50.132Z,4.00
2022-12-18T23:02:18.729Z,4.00
2022-12-18T23:04:45.995Z,4.00
2022-12-18T23:07:12.897Z,4.10
2022-12-18T23:09:40.594Z,4.10
2022-12-18T23:12:08.050Z,4.10
2022-12-18T23:14:35.030Z,4.10
2022-12-18T23:17:01.978Z,4.10
2022-12-18T23:19:29.137Z,4.10
2022-12-18T23:21:58.620Z,4.10
2022-12-18T23:24:26.438Z,4.10
2022-12-18T23:26:53.554Z,4.10
2022-12-18T23:29:20.750Z,4.10
2022-12-18T23:31:47.669Z,4.10
2022-12-18T23:34:15.112Z,4.10
2022-12-18T23:36:46.206Z,4.10
2022-12-18T23:39:27.033Z,4.10
2022-12-18T23:41:59.701Z,4.10
2022-12-18T23:44:27.324Z,4.10
2022-12-18T23:46:54.581Z,4.10
2022-12-18T23:49:21.692Z,4.10
2022-12-18T23:51:49.936Z,4.10
2022-12-18T23:54:17.370Z,4.20
2022-12-18T23:56:49.424Z,4.20
2022-12-18T23:59:17.168Z,4.20
